Flight Track Log - Related Links

Times and Time Zones

All times are in EDT time to prevent confusion due to time zone crossing. See the USC105 flight status page for this flight to view local times or setup timezone preferences in your user account.

Time Position Orientation Groundspeed Altitude Reporting Facility
EDT Latitude Longitude Course Direction KTS MPH feet Rate Location/Type
Thu 11:13:53 PM 41.5275 -81.6814 308° West 89 102 1,200  Level Cleveland Center
Thu 11:15:06 PM 41.5439 -81.7094 302° West 99 114 2,900 1,433 Climbing Cleveland Center
Thu 11:16:07 PM 41.5581 -81.7403 296° West 95 109 4,400 1,438 Climbing Cleveland Center
Thu 11:17:07 PM 41.5703 -81.7739 296° West 94 108 5,800 1,289 Climbing Cleveland Center
Thu 11:18:08 PM 41.5822 -81.8072 299° West 104 120 7,000 1,082 Climbing Cleveland Center
Thu 11:19:09 PM 41.5986 -81.8464 296° West 121 139 8,000 496 Climbing Cleveland Center
Thu 11:20:09 PM 41.6167 -81.8969 298° West 158 182 8,000  Level Cleveland Center
Thu 11:21:10 PM 41.6369 -81.9472 297° West 161 185 8,000  Level Cleveland Center
Thu 11:22:10 PM 41.6572 -82.0006 299° West 158 182 8,000  Level Cleveland Center
Thu 11:23:11 PM 41.6794 -82.0539 300° West 158 182 8,000  Level Cleveland Center
Thu 11:24:12 PM 41.6997 -82.1017 292° West 155 178 8,000  Level Cleveland Center
Thu 11:25:12 PM 41.7178 -82.1603 307° West 158 182 8,000  Level Cleveland Center
Thu 11:25:46 PM 41.7319 -82.1858 294° West 158 182 8,000  Level Cleveland Center
Thu 11:26:53 PM 41.7519 -82.2475 297° West 156 180 8,000  Level Cleveland Center
Thu 11:27:53 PM 41.7719 -82.3011 295° West 160 184 8,000  Level Cleveland Center
Thu 11:28:42 PM 41.7858 -82.3403 297° West 160 184 8,000  Level Cleveland Center
Thu 11:29:42 PM 41.8061 -82.3939 298° West 161 185 8,000  Level Cleveland Center
Thu 11:30:43 PM 41.8300 -82.4531 298° West 159 183 8,000  Level Cleveland Center
Thu 11:31:44 PM 41.8500 -82.5039 300° West 160 184 8,000  Level Cleveland Center
Thu 11:32:44 PM 41.8722 -82.5547 296° West 157 181 8,000  Level Cleveland Center
Thu 11:33:45 PM 41.8919 -82.6083 295° West 159 183 8,000  Level Cleveland Center
Thu 11:34:45 PM 41.9119 -82.6647 291° West 160 184 8,000  Level Cleveland Center
Thu 11:35:52 PM 41.9294 -82.7267 288° West 159 183 8,000  Level Cleveland Center
Thu 11:36:53 PM 41.9431 -82.7831 289° West 162 186 8,000  Level Cleveland Center
Thu 11:37:53 PM 41.9586 -82.8422 294° West 161 185 8,000  Level Cleveland Center
Thu 11:38:54 PM 41.9761 -82.8958 290° West 163 188 8,000  Level Cleveland Center
Thu 11:39:55 PM 41.9917 -82.9522 289° West 164 189 8,000  Level Cleveland Center
Thu 11:40:55 PM 42.0072 -83.0144 288° West 165 190 8,000  Level Cleveland Center
Thu 11:42:02 PM 42.0225 -83.0792 289° West 161 185 8,000 -47 Level Cleveland Center
Thu 11:43:02 PM 42.0358 -83.1328 289° West 160 184 7,900 -347 Descending Cleveland Center
Thu 11:44:03 PM 42.0511 -83.1922 291° West 165 190 7,300 -590 Descending Cleveland Center
Thu 11:45:04 PM 42.0686 -83.2544 292° West 172 198 6,700 -496 Descending Cleveland Center
Thu 11:46:04 PM 42.0858 -83.3111 289° West 163 188 6,300 -496 Descending Cleveland Center
Thu 11:47:05 PM 42.1011 -83.3706 289° West 164 189 5,700 -590 Descending Cleveland Center
Thu 11:48:06 PM 42.1164 -83.4300 294° West 172 198 5,100 -561 Descending Cleveland Center
Thu 11:48:52 PM 42.1303 -83.4719 289° West 170 196 4,700 -483 Descending FAA TRACON SMA TRACON (SMA)
Thu 11:49:33 PM 42.1403 -83.5108 287° West 168 193 4,400 -370 Descending FAA TRACON SMA TRACON (SMA)
Thu 11:50:13 PM 42.1492 -83.5489 309° West 162 186 4,200 -532 Descending FAA TRACON SMA TRACON (SMA)
Thu 11:50:52 PM 42.1650 -83.5750 343° North 128 147 3,700 -1,139 Descending FAA TRACON SMA TRACON (SMA)
Thu 11:51:32 PM 42.1853 -83.5833 17° North 114 131 2,700 -1,481 Descending FAA TRACON SMA TRACON (SMA)
Thu 11:52:13 PM 42.2053 -83.5750 45° Northeast 118 136 1,700 -1,259 Descending FAA TRACON SMA TRACON (SMA)
Thu 11:52:53 PM 42.2211 -83.5533 46° Northeast 113 130 1,000 -600 Descending FAA TRACON SMA TRACON (SMA)
Thu 11:53:33 PM 42.2258 -83.5467 46° Northeast 110 127 900 -150 Descending FAA TRACON SMA TRACON (SMA)

Login

Don't have an account? Register now (free) for customized features, flight alerts, and more!